createdAt,value
2022-11-06T00:03:24.241Z,4153.7
2022-11-06T00:08:59.129Z,4153.7
2022-11-06T00:14:34.224Z,4152.7
2022-11-06T00:20:09.624Z,4154.2
2022-11-06T00:25:45.010Z,4151.8
2022-11-06T00:31:19.839Z,4153.3
2022-11-06T00:36:55.292Z,4151.7
2022-11-06T00:42:30.150Z,4149
2022-11-06T00:48:27.168Z,4149
2022-11-06T00:54:00.933Z,4149.8
2022-11-06T00:59:36.102Z,4149.6
2022-11-06T01:05:11.813Z,4151.5
2022-11-06T01:10:47.142Z,4150.1
2022-11-06T01:16:22.102Z,4150.5
2022-11-06T01:21:58.015Z,4148
2022-11-06T01:27:33.096Z,4149.3
2022-11-06T01:33:08.342Z,4147.1
2022-11-06T01:38:43.433Z,4148.8
2022-11-06T01:44:18.502Z,4147
2022-11-06T01:49:53.636Z,4147.5
2022-11-06T01:55:28.658Z,4146
2022-11-06T02:01:03.867Z,4147.1
2022-11-06T02:06:40.014Z,4148
2022-11-06T02:12:15.869Z,4148.5
2022-11-06T02:17:51.095Z,4144.8
2022-11-06T02:23:26.833Z,4144.3
2022-11-06T02:29:01.553Z,4148.5
2022-11-06T02:34:36.503Z,4145.8
2022-11-06T02:40:11.701Z,4144.6
2022-11-06T02:45:46.624Z,4147.6
2022-11-06T02:51:22.069Z,4142.4
2022-11-06T02:56:57.198Z,4143.3
2022-11-06T03:02:34.323Z,4143.8
2022-11-06T03:08:10.592Z,4145.3
2022-11-06T03:13:45.986Z,4142.9
2022-11-06T03:19:21.027Z,4145
2022-11-06T03:24:55.884Z,4141.6
2022-11-06T03:30:30.623Z,4143.1
2022-11-06T03:36:05.370Z,4141.3
2022-11-06T03:41:40.577Z,4143.3
2022-11-06T03:47:37.086Z,4138.8
2022-11-06T03:53:10.615Z,4141.4
2022-11-06T03:58:46.604Z,4142.6
2022-11-06T04:04:21.591Z,4139.4
2022-11-06T04:09:56.547Z,4140.6
2022-11-06T04:15:31.415Z,4139.8
2022-11-06T04:21:06.478Z,4141.9
2022-11-06T04:26:41.509Z,4138.8
2022-11-06T04:32:17.540Z,4140.3
2022-11-06T04:37:52.264Z,4138.1
2022-11-06T04:43:27.052Z,4141.4
2022-11-06T04:49:23.732Z,4134.2
2022-11-06T04:54:56.705Z,4135.6
2022-11-06T05:00:32.467Z,4138.3
2022-11-06T05:06:08.704Z,4138.3
2022-11-06T05:11:43.646Z,4136.4
2022-11-06T05:17:18.474Z,4137.4
2022-11-06T05:22:54.512Z,4139.4
2022-11-06T05:28:29.278Z,4138.3
2022-11-06T05:34:03.947Z,4134.7
2022-11-06T05:39:43.159Z,4132.6
2022-11-06T05:45:18.505Z,4134.1
2022-11-06T05:50:53.676Z,4134.2
2022-11-06T05:56:29.403Z,4133.6
2022-11-06T06:02:06.488Z,4131.4
2022-11-06T06:07:41.364Z,4133.6
2022-11-06T06:13:16.487Z,4131.7
2022-11-06T06:18:53.139Z,4132.2
2022-11-06T06:24:28.690Z,4133.1
2022-11-06T06:30:04.863Z,4131.9
2022-11-06T06:35:39.750Z,4130.2
2022-11-06T06:41:14.858Z,4131.9
2022-11-06T06:47:12.369Z,4127.2
2022-11-06T06:52:45.283Z,4131.7
2022-11-06T06:58:25.080Z,4130.4
2022-11-06T07:04:05.931Z,4129.4
2022-11-06T07:09:41.174Z,4139.4
2022-11-06T07:15:15.864Z,4142.6
2022-11-06T07:20:50.794Z,4143.6
2022-11-06T07:26:25.596Z,4140.6
2022-11-06T07:32:00.599Z,4144.5
2022-11-06T07:37:35.576Z,4151.2
2022-11-06T07:43:10.633Z,4154.7
2022-11-06T07:49:07.304Z,4157.7
2022-11-06T07:54:41.398Z,4165.2
2022-11-06T08:00:16.173Z,4202.6
2022-11-06T08:05:51.071Z,4206.9
2022-11-06T08:11:25.976Z,4200.6
2022-11-06T08:17:01.101Z,4188.3
2022-11-06T08:22:36.092Z,4178.3
2022-11-06T08:28:15.760Z,4181.3
2022-11-06T08:33:51.735Z,4212.8
2022-11-06T08:39:26.736Z,4209.3
2022-11-06T08:45:01.856Z,4185.5
2022-11-06T08:50:36.958Z,4210.3
2022-11-06T08:56:13.174Z,4200.1
2022-11-06T09:01:50.220Z,4202.4
2022-11-06T09:07:25.550Z,4220.3
2022-11-06T09:13:00.499Z,4195.9
2022-11-06T09:18:36.767Z,4214.5
2022-11-06T09:24:11.867Z,4195.5
2022-11-06T09:29:46.858Z,4196.2
2022-11-06T09:35:30.786Z,4216.5
2022-11-06T09:41:05.988Z,4197.4
2022-11-06T09:47:02.721Z,4214.1
2022-11-06T09:52:38.426Z,4224.7
2022-11-06T09:58:17.175Z,4197.9
2022-11-06T10:03:52.393Z,4208.6
2022-11-06T10:09:27.720Z,4205.4
2022-11-06T10:15:02.760Z,4200.4
2022-11-06T10:20:38.006Z,4203.1
2022-11-06T10:26:13.141Z,4211.8
2022-11-06T10:33:39.108Z,4225.2
2022-11-06T10:39:15.199Z,4206.6
2022-11-06T10:44:50.722Z,4212.8
2022-11-06T10:50:25.870Z,4216
2022-11-06T10:56:11.439Z,4219.3
2022-11-06T11:01:49.332Z,4205.1
2022-11-06T11:07:24.868Z,4222.3
2022-11-06T11:13:10.061Z,4213.5
2022-11-06T11:18:45.148Z,4205.8
2022-11-06T11:24:21.086Z,4216.1
2022-11-06T11:30:07.274Z,4213.1
2022-11-06T11:35:46.571Z,4221
2022-11-06T11:41:22.746Z,4215.5
2022-11-06T11:47:19.989Z,4208.4
2022-11-06T11:52:52.636Z,4220.2
2022-11-06T11:58:27.479Z,4232.2
2022-11-06T12:04:02.580Z,4225.4
2022-11-06T12:09:38.143Z,4218.8
2022-11-06T12:15:13.233Z,4215.3
2022-11-06T12:21:15.266Z,4217
2022-11-06T12:27:02.375Z,4223.3
2022-11-06T12:32:58.350Z,4211.6
2022-11-06T12:38:33.392Z,4220.2
2022-11-06T12:44:12.000Z,4225
2022-11-06T12:50:32.067Z,4218.7
2022-11-06T12:56:07.638Z,4215.3
2022-11-06T13:01:45.009Z,4214.6
2022-11-06T13:07:24.124Z,4223.7
2022-11-06T13:13:23.389Z,4225.4
2022-11-06T13:19:02.982Z,4220.7
2022-11-06T13:24:37.991Z,4218
2022-11-06T13:30:27.739Z,4223.5
2022-11-06T13:36:11.356Z,4214
2022-11-06T13:41:49.029Z,4215.8
2022-11-06T13:47:45.584Z,4227.5
2022-11-06T13:53:32.384Z,4221.5
2022-11-06T13:59:07.804Z,4223
2022-11-06T14:04:42.671Z,4222.7
2022-11-06T14:10:19.041Z,4228.5
2022-11-06T14:15:56.598Z,4226.9
2022-11-06T14:21:41.050Z,4218.7
2022-11-06T14:27:28.080Z,4224.2
2022-11-06T14:33:38.926Z,4216.5
2022-11-06T14:39:41.728Z,4224
2022-11-06T14:45:17.023Z,4215.3
2022-11-06T14:50:55.551Z,4220.2
2022-11-06T14:56:30.759Z,4216
2022-11-06T15:02:09.016Z,4217
2022-11-06T15:08:07.469Z,4217.6
2022-11-06T15:14:09.916Z,4216.6
2022-11-06T15:19:45.084Z,4206.6
2022-11-06T15:25:29.311Z,4204.6
2022-11-06T15:31:05.213Z,4202.6
2022-11-06T15:36:49.556Z,4203.7
2022-11-06T15:42:29.904Z,4203.1
2022-11-06T15:48:26.537Z,4199.1
2022-11-06T15:54:08.308Z,4203.9
2022-11-06T15:59:44.021Z,4201.4
2022-11-06T16:05:18.785Z,4198.6
2022-11-06T16:10:58.314Z,4198.1
2022-11-06T16:16:49.710Z,4194.4
2022-11-06T16:22:25.561Z,4192.4
2022-11-06T16:28:03.259Z,4195
2022-11-06T16:33:47.042Z,4193.4
2022-11-06T16:39:52.558Z,4190.3
2022-11-06T16:45:50.366Z,4191.2
2022-11-06T16:51:28.215Z,4191.9
2022-11-06T16:57:10.969Z,4187.7
2022-11-06T17:02:48.703Z,4186.7
2022-11-06T17:08:50.805Z,4188.3
2022-11-06T17:14:29.030Z,4187.3
2022-11-06T17:20:08.586Z,4189.5
2022-11-06T17:25:48.699Z,4184.1
2022-11-06T17:31:23.783Z,4187
2022-11-06T17:37:00.120Z,4185
2022-11-06T17:42:38.339Z,4184.7
2022-11-06T17:48:34.868Z,4182
2022-11-06T17:54:09.057Z,4184.3
2022-11-06T17:59:45.859Z,4185.5
2022-11-06T18:05:21.027Z,4181.1
2022-11-06T18:10:55.957Z,4183.3
2022-11-06T18:16:30.944Z,4182.8
2022-11-06T18:22:07.991Z,4180.6
2022-11-06T18:27:46.199Z,4181.5
2022-11-06T18:33:22.868Z,4179.6
2022-11-06T18:38:57.555Z,4182.5
2022-11-06T18:44:36.687Z,4180.8
2022-11-06T18:50:23.717Z,4181.6
2022-11-06T18:55:58.566Z,4179.3
2022-11-06T19:01:37.455Z,4180.3
2022-11-06T19:07:12.859Z,4177.5
2022-11-06T19:12:47.601Z,4180.6
2022-11-06T19:18:23.563Z,4180.5
2022-11-06T19:24:08.034Z,4176.1
2022-11-06T19:29:43.041Z,4176.9
2022-11-06T19:35:18.091Z,4178.8
2022-11-06T19:40:52.944Z,4176.3
2022-11-06T19:46:37.252Z,4175.3
2022-11-06T19:53:05.341Z,4174.6
2022-11-06T19:58:40.825Z,4174.9
2022-11-06T20:04:16.947Z,4176.9
2022-11-06T20:09:52.034Z,4176.3
2022-11-06T20:15:30.919Z,4173.9
2022-11-06T20:21:14.786Z,4172.4
2022-11-06T20:26:50.139Z,4176.4
2022-11-06T20:32:25.192Z,4174.4
2022-11-06T20:38:00.453Z,4174.4
2022-11-06T20:43:35.888Z,4172.1
2022-11-06T20:49:32.734Z,4171.1
2022-11-06T20:55:06.476Z,4173.3
2022-11-06T21:00:41.346Z,4170.9
2022-11-06T21:06:17.350Z,4170.7
2022-11-06T21:11:53.022Z,4170.6
2022-11-06T21:17:37.611Z,4170.7
2022-11-06T21:23:15.746Z,4169.2
2022-11-06T21:28:50.964Z,4169.4
2022-11-06T21:34:25.847Z,4169.7
2022-11-06T21:40:01.947Z,4167.4
2022-11-06T21:45:37.084Z,4172.1
2022-11-06T21:51:19.007Z,4168.2
2022-11-06T21:56:54.153Z,4166.4
2022-11-06T22:02:31.246Z,4169.1
2022-11-06T22:08:06.824Z,4166.4
2022-11-06T22:13:42.212Z,4165.7
2022-11-06T22:19:17.103Z,4165.7
2022-11-06T22:24:52.237Z,4165.7
2022-11-06T22:30:28.189Z,4165.6
2022-11-06T22:36:03.081Z,4163.4
2022-11-06T22:41:40.924Z,4167.2
2022-11-06T22:47:38.280Z,4158.9
2022-11-06T22:53:18.012Z,4162
2022-11-06T22:58:53.808Z,4161.2
2022-11-06T23:04:28.722Z,4160.7
2022-11-06T23:10:03.623Z,4161.2
2022-11-06T23:15:38.919Z,4163.2
2022-11-06T23:21:14.087Z,4161.5
2022-11-06T23:26:49.932Z,4161.4
2022-11-06T23:32:26.172Z,4162
2022-11-06T23:38:02.027Z,4165.6
2022-11-06T23:43:37.232Z,4159.5
2022-11-06T23:49:33.929Z,4154.8
2022-11-06T23:55:07.926Z,4158.9
